createdAt,value
2017-09-26T00:01:25.387Z,33.57
2017-09-26T00:03:52.830Z,23.60
2017-09-26T00:06:20.262Z,21.33
2017-09-26T00:08:47.691Z,29.77
2017-09-26T00:11:15.141Z,25.97
2017-09-26T00:13:42.598Z,27.67
2017-09-26T00:16:10.037Z,22.93
2017-09-26T00:18:37.473Z,28.07
2017-09-26T00:21:04.942Z,28.47
2017-09-26T00:23:32.392Z,28.13
2017-09-26T00:25:59.851Z,27.33
2017-09-26T00:28:27.305Z,20.60
2017-09-26T00:30:54.761Z,22.20
2017-09-26T00:33:22.201Z,27.80
2017-09-26T00:35:50.093Z,24.10
2017-09-26T00:38:17.555Z,18.63
2017-09-26T00:40:44.998Z,26.30
2017-09-26T00:43:12.459Z,22.33
2017-09-26T00:45:39.891Z,29.17
2017-09-26T00:48:07.324Z,26.00
2017-09-26T00:50:35.532Z,24.10
2017-09-26T00:53:03.254Z,22.20
2017-09-26T00:55:30.677Z,27.23
2017-09-26T00:57:58.117Z,27.23
2017-09-26T01:00:25.555Z,33.70
2017-09-26T01:02:52.998Z,27.03
2017-09-26T01:05:31.098Z,24.50
2017-09-26T01:07:59.321Z,22.37
2017-09-26T01:10:26.760Z,26.30
2017-09-26T01:12:54.258Z,23.50
2017-09-26T01:15:21.689Z,37.23
2017-09-26T01:17:49.126Z,25.33
2017-09-26T01:20:16.563Z,25.03
2017-09-26T01:22:44.773Z,26.07
2017-09-26T01:25:12.205Z,26.90
2017-09-26T01:27:39.655Z,25.43
2017-09-26T01:30:07.096Z,24.97
2017-09-26T01:32:34.537Z,29.87
2017-09-26T01:35:01.972Z,27.73
2017-09-26T01:37:29.421Z,29.50
2017-09-26T01:39:56.855Z,29.60
2017-09-26T01:42:24.288Z,27.17
2017-09-26T01:44:52.526Z,26.40
2017-09-26T01:47:19.937Z,31.67
2017-09-26T01:49:47.391Z,26.77
2017-09-26T01:52:15.648Z,29.97
2017-09-26T01:54:43.861Z,29.37
2017-09-26T01:57:12.180Z,28.40
2017-09-26T01:59:42.187Z,27.67
2017-09-26T02:02:09.620Z,26.07
2017-09-26T02:04:37.074Z,26.93
2017-09-26T02:07:04.526Z,26.87
2017-09-26T02:09:31.944Z,26.73
2017-09-26T02:11:59.370Z,26.33
2017-09-26T02:14:26.816Z,27.50
2017-09-26T02:16:54.246Z,31.47
2017-09-26T02:19:21.675Z,29.30
2017-09-26T02:21:49.872Z,31.73
2017-09-26T02:24:17.303Z,29.60
2017-09-26T02:26:45.501Z,25.27
2017-09-26T02:29:12.929Z,29.20
2017-09-26T02:31:40.359Z,26.10
2017-09-26T02:34:07.794Z,28.23
2017-09-26T02:36:35.232Z,34.90
2017-09-26T02:39:02.663Z,30.23
2017-09-26T02:41:30.860Z,31.83
2017-09-26T02:43:58.289Z,34.90
2017-09-26T02:46:26.774Z,28.40
2017-09-26T02:48:54.972Z,28.50
2017-09-26T02:51:22.416Z,24.60
2017-09-26T02:53:50.605Z,22.83
2017-09-26T02:56:18.045Z,28.57
2017-09-26T02:58:46.249Z,24.00
2017-09-26T03:01:13.682Z,24.83
2017-09-26T03:03:41.912Z,23.53
2017-09-26T03:06:09.341Z,27.57
2017-09-26T03:08:36.775Z,20.23
2017-09-26T03:11:04.213Z,24.10
2017-09-26T03:13:32.410Z,25.43
2017-09-26T03:15:59.856Z,25.23
2017-09-26T03:18:28.065Z,29.30
2017-09-26T03:20:55.616Z,30.10
2017-09-26T03:23:23.044Z,29.20
2017-09-26T03:25:51.251Z,31.83
2017-09-26T03:28:18.699Z,25.00
2017-09-26T03:30:46.225Z,26.63
2017-09-26T03:33:14.500Z,36.50
2017-09-26T03:35:42.781Z,28.43
2017-09-26T03:38:10.984Z,24.70
2017-09-26T03:40:38.419Z,27.13
2017-09-26T03:43:05.862Z,37.07
2017-09-26T03:45:33.284Z,33.93
2017-09-26T03:48:00.729Z,37.77
2017-09-26T03:50:28.160Z,31.17
2017-09-26T03:52:55.597Z,32.33
2017-09-26T03:55:23.796Z,30.37
2017-09-26T03:57:51.235Z,30.87
2017-09-26T04:00:19.444Z,33.53
2017-09-26T04:02:46.905Z,32.27
2017-09-26T04:05:15.328Z,39.50
2017-09-26T04:07:42.747Z,33.07
2017-09-26T04:10:10.176Z,29.50
2017-09-26T04:12:37.612Z,36.27
2017-09-26T04:15:05.824Z,33.97
2017-09-26T04:17:33.252Z,37.77
2017-09-26T04:20:00.692Z,38.37
2017-09-26T04:22:28.923Z,29.57
2017-09-26T04:24:56.394Z,34.07
2017-09-26T04:27:23.832Z,37.30
2017-09-26T04:29:51.281Z,38.13
2017-09-26T04:32:18.711Z,45.83
2017-09-26T04:34:47.181Z,51.87
2017-09-26T04:37:15.381Z,47.77
2017-09-26T04:39:42.861Z,41.30
2017-09-26T04:42:10.264Z,47.47
2017-09-26T04:44:39.456Z,49.40
2017-09-26T04:47:06.896Z,41.53
2017-09-26T04:49:34.334Z,52.43
2017-09-26T04:52:01.820Z,39.27
2017-09-26T04:54:30.312Z,43.73
2017-09-26T04:56:57.751Z,46.27
2017-09-26T04:59:25.208Z,37.70
2017-09-26T05:01:52.657Z,53.23
2017-09-26T05:04:20.065Z,41.60
2017-09-26T05:06:47.495Z,44.57
2017-09-26T05:09:14.918Z,45.73
2017-09-26T05:11:42.357Z,45.17
2017-09-26T05:14:09.791Z,45.80
2017-09-26T05:16:37.228Z,47.37
2017-09-26T05:19:05.464Z,47.50
2017-09-26T05:21:32.911Z,43.60
2017-09-26T05:24:00.348Z,37.93
2017-09-26T05:26:27.792Z,41.70
2017-09-26T05:28:55.230Z,39.03
2017-09-26T05:31:23.434Z,40.50
2017-09-26T05:33:50.861Z,40.70
2017-09-26T05:36:19.071Z,36.93
2017-09-26T05:38:46.505Z,43.70
2017-09-26T05:41:15.691Z,41.27
2017-09-26T05:43:43.892Z,34.33
2017-09-26T05:46:11.371Z,43.07
2017-09-26T05:48:38.833Z,38.90
2017-09-26T05:51:06.305Z,39.57
2017-09-26T05:53:33.736Z,45.90
2017-09-26T05:56:01.172Z,44.73
2017-09-26T05:58:28.611Z,40.00
2017-09-26T06:00:56.812Z,39.87
2017-09-26T06:03:24.256Z,43.60
2017-09-26T06:05:51.690Z,38.63
2017-09-26T06:08:19.130Z,43.00
2017-09-26T06:10:46.563Z,38.20
2017-09-26T06:13:14.004Z,41.60
2017-09-26T06:15:41.422Z,45.93
2017-09-26T06:18:08.864Z,39.63
2017-09-26T06:20:36.297Z,37.67
2017-09-26T06:23:03.775Z,37.80
2017-09-26T06:25:31.241Z,42.43
2017-09-26T06:27:58.699Z,38.40
2017-09-26T06:30:26.120Z,43.53
2017-09-26T06:32:53.557Z,41.67
2017-09-26T06:35:20.983Z,43.33
2017-09-26T06:37:49.189Z,46.00
2017-09-26T06:40:16.639Z,39.40
2017-09-26T06:42:44.237Z,34.43
2017-09-26T06:45:11.672Z,49.47
2017-09-26T06:47:39.103Z,33.87
2017-09-26T06:50:10.078Z,36.70
2017-09-26T06:52:37.511Z,34.30
2017-09-26T06:55:05.955Z,34.87
2017-09-26T06:57:33.388Z,35.07
2017-09-26T07:00:00.975Z,34.60
2017-09-26T07:02:29.181Z,32.83
2017-09-26T07:04:56.743Z,42.20
2017-09-26T07:07:24.172Z,38.07
2017-09-26T07:09:52.373Z,34.97
2017-09-26T07:12:19.799Z,37.30
2017-09-26T07:14:47.235Z,42.30
2017-09-26T07:17:14.664Z,32.70
2017-09-26T07:19:42.095Z,37.37
2017-09-26T07:22:09.526Z,40.17
2017-09-26T07:24:36.958Z,37.27
2017-09-26T07:27:10.070Z,35.20
2017-09-26T07:29:38.272Z,36.50
2017-09-26T07:32:05.699Z,41.07
2017-09-26T07:34:33.899Z,40.50
2017-09-26T07:37:01.333Z,36.17
2017-09-26T07:39:29.532Z,39.80
2017-09-26T07:41:56.975Z,36.67
2017-09-26T07:44:25.182Z,37.73
2017-09-26T07:46:52.607Z,36.53
2017-09-26T07:49:20.816Z,35.97
2017-09-26T07:51:48.247Z,33.97
2017-09-26T07:54:15.683Z,35.43
2017-09-26T07:56:43.915Z,36.47
2017-09-26T07:59:11.491Z,34.33
2017-09-26T08:01:38.931Z,30.80
2017-09-26T08:04:06.721Z,35.63
2017-09-26T08:06:34.315Z,34.13
2017-09-26T08:09:03.920Z,31.43
2017-09-26T08:11:32.126Z,33.50
2017-09-26T08:13:59.548Z,39.33
2017-09-26T08:16:26.982Z,34.17
2017-09-26T08:18:54.415Z,31.03
2017-09-26T08:21:21.903Z,32.47
2017-09-26T08:23:49.336Z,38.63
2017-09-26T08:26:16.785Z,32.53
2017-09-26T08:28:44.215Z,33.17
2017-09-26T08:31:11.635Z,27.67
2017-09-26T08:33:39.844Z,27.03
2017-09-26T08:36:07.277Z,30.53
2017-09-26T08:38:35.480Z,29.50
2017-09-26T08:41:02.903Z,29.07
2017-09-26T08:43:31.108Z,27.13
2017-09-26T08:45:58.544Z,24.60
2017-09-26T08:48:26.744Z,28.63
2017-09-26T08:50:54.180Z,34.27
2017-09-26T08:53:22.400Z,25.70
2017-09-26T08:55:49.831Z,28.40
2017-09-26T08:58:17.256Z,27.20
2017-09-26T09:00:44.688Z,26.60
2017-09-26T09:03:12.112Z,35.80
2017-09-26T09:05:39.549Z,23.33
2017-09-26T09:08:06.982Z,25.60
2017-09-26T09:10:34.412Z,26.33
2017-09-26T09:13:01.843Z,29.37
2017-09-26T09:15:29.279Z,20.70
2017-09-26T09:17:56.709Z,22.37
2017-09-26T09:20:24.907Z,19.23
2017-09-26T09:22:52.336Z,20.50
2017-09-26T09:25:20.551Z,22.87
2017-09-26T09:27:47.989Z,19.73
2017-09-26T09:30:15.426Z,21.13
2017-09-26T09:32:43.619Z,22.67
2017-09-26T09:35:12.107Z,17.13
2017-09-26T09:37:39.548Z,16.10
2017-09-26T09:40:07.755Z,25.80
2017-09-26T09:42:35.181Z,18.63
2017-09-26T09:45:02.612Z,17.80
2017-09-26T09:47:30.048Z,21.73
2017-09-26T09:52:28.287Z,17.83
2017-09-26T09:54:55.725Z,18.07
2017-09-26T09:57:23.160Z,17.70
2017-09-26T09:59:50.600Z,15.87
2017-09-26T10:02:18.042Z,15.93
2017-09-26T10:04:45.472Z,12.57
2017-09-26T10:07:12.908Z,14.30
2017-09-26T10:09:41.103Z,13.13
2017-09-26T10:12:08.536Z,23.10
2017-09-26T10:14:35.971Z,21.00
2017-09-26T10:17:03.411Z,15.93
2017-09-26T10:19:30.838Z,16.77
2017-09-26T10:21:58.275Z,12.67
2017-09-26T10:24:26.467Z,12.60
2017-09-26T10:26:53.904Z,15.70
2017-09-26T10:29:22.105Z,13.30
2017-09-26T10:31:51.487Z,19.00
2017-09-26T10:34:19.680Z,16.77
2017-09-26T10:36:47.115Z,15.00
2017-09-26T10:39:15.310Z,15.83
2017-09-26T10:41:42.739Z,15.27
2017-09-26T10:44:10.944Z,14.17
2017-09-26T10:46:38.372Z,17.00
2017-09-26T10:49:06.571Z,21.83
2017-09-26T10:51:34.007Z,15.00
2017-09-26T10:54:02.202Z,15.87
2017-09-26T10:56:29.629Z,13.33
2017-09-26T10:58:57.059Z,13.77
2017-09-26T11:01:24.503Z,17.77
2017-09-26T11:03:51.935Z,17.70
2017-09-26T11:06:19.367Z,17.23
2017-09-26T11:08:47.567Z,14.13
2017-09-26T11:11:16.923Z,16.53
2017-09-26T11:13:44.364Z,14.97
2017-09-26T11:16:11.804Z,12.17
2017-09-26T11:18:39.250Z,12.77
2017-09-26T11:21:06.675Z,14.10
2017-09-26T11:23:34.896Z,16.73
2017-09-26T11:26:02.383Z,17.33
2017-09-26T11:28:29.819Z,18.60
2017-09-26T11:30:57.312Z,19.17
2017-09-26T11:33:25.530Z,18.80
2017-09-26T11:35:52.982Z,15.93
2017-09-26T11:38:20.438Z,15.20
2017-09-26T11:40:47.868Z,15.17
2017-09-26T11:43:16.149Z,17.67
2017-09-26T11:45:44.347Z,17.40
2017-09-26T11:48:11.783Z,17.33
2017-09-26T11:50:39.993Z,22.90
2017-09-26T11:53:07.439Z,16.90
2017-09-26T11:55:34.872Z,15.70
2017-09-26T11:58:02.317Z,19.20
2017-09-26T12:00:30.536Z,16.53
2017-09-26T12:02:57.979Z,18.33
2017-09-26T12:05:25.419Z,18.40
2017-09-26T12:07:52.852Z,17.57
2017-09-26T12:10:21.059Z,16.97
2017-09-26T12:12:54.072Z,13.23
2017-09-26T12:15:21.520Z,13.80
2017-09-26T12:17:48.965Z,16.30
2017-09-26T12:20:16.417Z,19.07
2017-09-26T12:22:43.853Z,16.93
2017-09-26T12:25:12.068Z,14.87
2017-09-26T12:27:39.503Z,14.30
2017-09-26T12:30:06.944Z,15.20
2017-09-26T12:32:35.159Z,13.90
2017-09-26T12:35:02.591Z,17.70
2017-09-26T12:37:30.028Z,19.63
2017-09-26T12:39:58.243Z,17.73
2017-09-26T12:42:25.753Z,20.77
2017-09-26T12:44:53.188Z,17.17
2017-09-26T12:47:20.619Z,18.23
2017-09-26T12:49:48.063Z,16.47
2017-09-26T12:52:17.663Z,14.13
2017-09-26T12:54:45.144Z,11.20
2017-09-26T12:57:12.592Z,15.33
2017-09-26T12:59:40.803Z,14.70
2017-09-26T13:02:09.295Z,14.70
2017-09-26T13:04:37.114Z,14.10
2017-09-26T13:07:04.523Z,17.03
2017-09-26T13:09:34.750Z,17.27
2017-09-26T13:12:02.953Z,18.93
2017-09-26T13:14:30.385Z,14.07
2017-09-26T13:16:58.592Z,16.10
2017-09-26T13:19:26.108Z,13.77
2017-09-26T13:21:55.616Z,13.70
2017-09-26T13:24:23.840Z,15.17
2017-09-26T13:26:51.292Z,13.60
2017-09-26T13:29:18.728Z,14.83
2017-09-26T13:31:46.174Z,10.00
2017-09-26T13:34:14.387Z,16.40
2017-09-26T13:36:41.797Z,13.77
2017-09-26T13:39:09.220Z,17.50
2017-09-26T13:41:36.783Z,12.40
2017-09-26T13:44:04.219Z,14.40
2017-09-26T13:46:31.725Z,17.50
2017-09-26T13:48:59.169Z,13.17
2017-09-26T13:51:30.730Z,13.90
2017-09-26T13:53:58.924Z,14.07
2017-09-26T13:56:27.132Z,13.73
2017-09-26T13:58:54.591Z,13.63
2017-09-26T14:01:22.042Z,16.80
2017-09-26T14:03:49.469Z,13.90
2017-09-26T14:06:16.900Z,16.40
2017-09-26T14:08:44.343Z,13.50
2017-09-26T14:11:11.851Z,12.07
2017-09-26T14:13:40.308Z,11.13
2017-09-26T14:16:16.232Z,14.90
2017-09-26T14:18:43.668Z,9.57
2017-09-26T14:21:18.724Z,12.23
2017-09-26T14:23:46.318Z,12.63
2017-09-26T14:26:14.515Z,15.17
2017-09-26T14:28:41.980Z,13.57
2017-09-26T14:31:09.408Z,13.47
2017-09-26T14:33:37.601Z,13.80
2017-09-26T14:36:08.304Z,15.10
2017-09-26T14:38:35.772Z,16.23
2017-09-26T14:41:05.979Z,11.23
2017-09-26T14:43:33.426Z,14.10
2017-09-26T14:46:00.899Z,9.40
2017-09-26T14:48:28.334Z,13.00
2017-09-26T14:50:55.775Z,11.50
2017-09-26T14:53:27.787Z,13.97
2017-09-26T14:55:55.985Z,12.93
2017-09-26T14:58:23.420Z,11.27
2017-09-26T15:00:51.695Z,12.60
2017-09-26T15:03:19.956Z,12.83
2017-09-26T15:05:47.390Z,13.03
2017-09-26T15:08:14.824Z,12.17
2017-09-26T15:10:42.268Z,13.47
2017-09-26T15:13:12.763Z,9.80
2017-09-26T15:15:40.963Z,14.37
2017-09-26T15:18:08.424Z,11.90
2017-09-26T15:20:36.623Z,16.03
2017-09-26T15:23:04.055Z,11.97
2017-09-26T15:25:34.969Z,13.17
2017-09-26T15:28:03.167Z,13.23
2017-09-26T15:30:30.604Z,14.33
2017-09-26T15:32:58.823Z,13.13
2017-09-26T15:35:26.436Z,12.10
2017-09-26T15:37:54.908Z,13.80
2017-09-26T15:40:22.339Z,11.73
2017-09-26T15:42:49.819Z,17.27
2017-09-26T15:45:18.066Z,17.97
2017-09-26T15:47:51.893Z,10.83
2017-09-26T15:50:19.318Z,12.40
2017-09-26T15:52:46.757Z,11.60
2017-09-26T15:55:17.782Z,12.50
2017-09-26T15:57:45.219Z,14.80
2017-09-26T16:00:12.647Z,14.03
2017-09-26T16:02:40.084Z,10.60
2017-09-26T16:05:07.503Z,10.90
2017-09-26T16:07:35.710Z,12.40
2017-09-26T16:10:03.143Z,11.47
2017-09-26T16:12:30.576Z,14.27
2017-09-26T16:14:58.000Z,11.63
2017-09-26T16:17:25.436Z,12.77
2017-09-26T16:19:52.878Z,11.30
2017-09-26T16:22:21.414Z,11.90
2017-09-26T16:24:48.845Z,11.47
2017-09-26T16:27:16.339Z,13.20
2017-09-26T16:29:43.807Z,11.33
2017-09-26T16:32:11.232Z,13.63
2017-09-26T16:34:38.667Z,12.20
2017-09-26T16:37:06.125Z,12.20
2017-09-26T16:39:33.556Z,17.60
2017-09-26T16:42:00.987Z,15.20
2017-09-26T16:44:29.189Z,11.67
2017-09-26T16:46:58.589Z,13.63
2017-09-26T16:49:26.024Z,13.07
2017-09-26T16:51:54.235Z,12.80
2017-09-26T16:54:21.661Z,12.30
2017-09-26T16:56:49.096Z,17.20
2017-09-26T16:59:16.524Z,13.93
2017-09-26T17:01:43.955Z,14.67
2017-09-26T17:04:11.555Z,24.43
2017-09-26T17:06:49.355Z,25.33
2017-09-26T17:09:16.783Z,25.53
2017-09-26T17:11:44.244Z,15.60
2017-09-26T17:14:11.668Z,13.77
2017-09-26T17:16:39.109Z,13.27
2017-09-26T17:19:07.308Z,14.00
2017-09-26T17:21:34.749Z,12.57
2017-09-26T17:24:02.947Z,13.47
2017-09-26T17:26:30.381Z,14.57
2017-09-26T17:28:58.571Z,15.10
2017-09-26T17:31:26.008Z,12.70
2017-09-26T17:33:54.304Z,14.97
2017-09-26T17:36:21.728Z,14.77
2017-09-26T17:38:49.164Z,13.57
2017-09-26T17:41:17.580Z,20.80
2017-09-26T17:43:45.790Z,16.40
2017-09-26T17:46:13.224Z,15.70
2017-09-26T17:48:40.656Z,19.00
2017-09-26T17:51:08.099Z,16.90
2017-09-26T17:53:35.536Z,18.63
2017-09-26T17:56:02.964Z,19.13
2017-09-26T17:58:30.408Z,16.13
2017-09-26T18:00:57.832Z,15.10
2017-09-26T18:03:25.271Z,17.53
2017-09-26T18:05:52.704Z,17.30
2017-09-26T18:08:26.886Z,16.50
2017-09-26T18:10:54.320Z,21.50
2017-09-26T18:13:21.782Z,12.77
2017-09-26T18:15:49.977Z,16.43
2017-09-26T18:18:17.408Z,15.07
2017-09-26T18:20:44.835Z,16.37
2017-09-26T18:23:12.284Z,15.60
2017-09-26T18:25:39.745Z,13.70
2017-09-26T18:28:07.164Z,17.80
2017-09-26T18:30:34.586Z,16.70
2017-09-26T18:33:02.029Z,18.00
2017-09-26T18:35:29.459Z,17.83
2017-09-26T18:37:56.904Z,20.43
2017-09-26T18:40:24.328Z,14.10
2017-09-26T18:42:53.628Z,15.60
2017-09-26T18:45:21.827Z,14.63
2017-09-26T18:47:49.259Z,18.50
2017-09-26T18:50:17.464Z,14.80
2017-09-26T18:52:44.972Z,16.13
2017-09-26T18:55:12.411Z,17.17
2017-09-26T18:57:39.850Z,14.90
2017-09-26T19:00:07.293Z,22.70
2017-09-26T19:02:34.723Z,17.50
2017-09-26T19:05:02.924Z,19.50
2017-09-26T19:07:30.448Z,18.43
2017-09-26T19:09:57.928Z,18.30
2017-09-26T19:12:26.132Z,17.07
2017-09-26T19:14:54.336Z,13.40
2017-09-26T19:17:21.773Z,17.93
2017-09-26T19:19:49.208Z,21.17
2017-09-26T19:22:16.635Z,18.80
2017-09-26T19:24:44.849Z,17.57
2017-09-26T19:27:12.284Z,17.90
2017-09-26T19:29:39.715Z,21.00
2017-09-26T19:32:07.916Z,16.77
2017-09-26T19:34:35.364Z,20.27
2017-09-26T19:37:03.569Z,22.80
2017-09-26T19:39:32.020Z,17.60
2017-09-26T19:42:00.224Z,16.20
2017-09-26T19:44:27.660Z,18.77
2017-09-26T19:46:55.094Z,20.13
2017-09-26T19:49:23.306Z,17.47
2017-09-26T19:51:50.729Z,25.93
2017-09-26T19:54:18.924Z,21.87
2017-09-26T19:56:46.383Z,17.90
2017-09-26T19:59:13.823Z,18.10
2017-09-26T20:01:42.033Z,17.00
2017-09-26T20:04:09.489Z,19.20
2017-09-26T20:06:36.911Z,15.83
2017-09-26T20:09:05.120Z,16.80
2017-09-26T20:11:32.552Z,15.00
2017-09-26T20:13:59.983Z,18.87
2017-09-26T20:16:28.487Z,18.03
2017-09-26T20:18:56.679Z,16.83
2017-09-26T20:21:24.116Z,21.07
2017-09-26T20:23:51.549Z,17.50
2017-09-26T20:26:18.983Z,17.03
2017-09-26T20:28:46.420Z,19.43
2017-09-26T20:31:13.873Z,18.53
2017-09-26T20:33:41.305Z,17.53
2017-09-26T20:36:08.741Z,17.40
2017-09-26T20:38:36.944Z,14.13
2017-09-26T20:41:04.392Z,18.43
2017-09-26T20:43:32.586Z,14.30
2017-09-26T20:46:00.016Z,18.33
2017-09-26T20:48:27.451Z,21.43
2017-09-26T20:50:54.888Z,17.27
2017-09-26T20:53:22.320Z,16.70
2017-09-26T20:55:50.519Z,22.57
2017-09-26T20:58:17.954Z,19.90
2017-09-26T21:00:45.407Z,19.27
2017-09-26T21:03:12.835Z,16.37
2017-09-26T21:05:40.268Z,24.33
2017-09-26T21:08:07.696Z,17.80
2017-09-26T21:10:35.133Z,21.30
2017-09-26T21:13:02.611Z,18.17
2017-09-26T21:15:30.027Z,20.40
2017-09-26T21:17:57.457Z,15.00
2017-09-26T21:20:24.887Z,21.33
2017-09-26T21:22:52.324Z,19.70
2017-09-26T21:25:19.764Z,16.80
2017-09-26T21:27:47.974Z,18.87
2017-09-26T21:30:15.412Z,18.33
2017-09-26T21:32:42.864Z,15.83
2017-09-26T21:35:10.289Z,18.83
2017-09-26T21:37:38.490Z,19.20
2017-09-26T21:40:06.007Z,17.83
2017-09-26T21:42:34.209Z,19.67
2017-09-26T21:45:01.639Z,18.83
2017-09-26T21:47:29.845Z,18.67
2017-09-26T21:49:57.275Z,15.67
2017-09-26T21:52:25.489Z,20.70
2017-09-26T21:54:52.917Z,20.40
2017-09-26T21:57:20.351Z,17.60
2017-09-26T21:59:47.783Z,17.93
2017-09-26T22:02:15.220Z,18.30
2017-09-26T22:04:42.657Z,19.27
2017-09-26T22:07:10.092Z,19.10
2017-09-26T22:09:37.520Z,21.17
2017-09-26T22:12:04.965Z,22.07
2017-09-26T22:14:32.399Z,19.17
2017-09-26T22:16:59.832Z,22.53
2017-09-26T22:19:27.261Z,15.30
2017-09-26T22:21:54.696Z,19.13
2017-09-26T22:24:22.127Z,21.60
2017-09-26T22:26:49.559Z,25.00
2017-09-26T22:29:17.035Z,22.50
2017-09-26T22:31:44.463Z,21.43
2017-09-26T22:34:12.659Z,18.77
2017-09-26T22:36:40.099Z,20.23
2017-09-26T22:39:07.532Z,24.77
2017-09-26T22:41:34.969Z,20.43
2017-09-26T22:44:02.400Z,22.70
2017-09-26T22:46:29.832Z,19.83
2017-09-26T22:48:57.263Z,24.50
2017-09-26T22:51:25.464Z,18.13
2017-09-26T22:53:52.900Z,21.57
2017-09-26T22:56:21.091Z,19.47
2017-09-26T22:58:48.533Z,18.60
2017-09-26T23:01:16.792Z,19.23
2017-09-26T23:03:44.232Z,19.30
2017-09-26T23:06:11.664Z,21.97
2017-09-26T23:08:39.104Z,22.10
2017-09-26T23:11:06.531Z,25.47
2017-09-26T23:13:34.743Z,20.40
2017-09-26T23:16:02.172Z,21.10
2017-09-26T23:18:30.382Z,18.97
2017-09-26T23:20:57.814Z,19.83
2017-09-26T23:23:26.005Z,21.33
2017-09-26T23:25:53.432Z,20.13
2017-09-26T23:28:21.627Z,16.77
2017-09-26T23:30:49.065Z,17.70
2017-09-26T23:33:17.275Z,22.27
2017-09-26T23:35:44.707Z,18.93
2017-09-26T23:38:12.147Z,26.10
2017-09-26T23:40:40.352Z,23.10
2017-09-26T23:43:07.780Z,19.13
2017-09-26T23:45:35.995Z,22.57
2017-09-26T23:48:03.424Z,22.93
2017-09-26T23:50:31.627Z,20.47
2017-09-26T23:52:59.052Z,19.77
2017-09-26T23:55:27.259Z,19.97
2017-09-26T23:57:54.695Z,21.10
